Time;durP1;ratioP1;P1;durP2;ratioP2;P2;SDS_P1;SDS_P2;PMS_P1;PMS_P2;Temp;Humidity;BMP_temperature;BMP_pressure;BME280_temperature;BME280_humidity;BME280_pressure;Samples;Min_cycle;Max_cycle;Signal;HPM_P1;HPM_P2
2022/12/29 00:01:13;;;;;;;55.27;25.33;;;-3.00;99.90;;;;;;4131393;28;21031;-61
2022/12/29 00:03:14;;;;;;;50.93;22.70;;;-3.00;99.90;;;;;;4130396;28;20350;-61
2022/12/29 00:05:15;;;;;;;48.00;24.30;;;-2.90;99.90;;;;;;4130962;28;20284;-61
2022/12/29 00:07:17;;;;;;;50.80;22.43;;;-2.90;99.90;;;;;;4129354;28;20272;-61
2022/12/29 00:09:18;;;;;;;52.20;24.20;;;-2.80;99.90;;;;;;4131348;28;20264;-61
2022/12/29 00:11:25;;;;;;;48.20;23.47;;;-2.80;99.90;;;;;;4130235;28;20299;-63
2022/12/29 00:15:46;;;;;;;43.60;21.90;;;-2.80;99.90;;;;;;4129605;28;20331;-62
2022/12/29 00:17:47;;;;;;;45.77;21.63;;;-2.80;99.90;;;;;;4131467;28;20319;-65
2022/12/29 00:36:33;;;;;;;42.50;21.07;;;-3.00;99.90;;;;;;4119818;28;20081;-61
2022/12/29 00:45:39;;;;;;;43.20;21.10;;;-3.00;99.90;;;;;;4129829;28;20730;-63
2022/12/29 00:47:40;;;;;;;43.00;20.67;;;-3.00;99.90;;;;;;4130755;28;20284;-62
2022/12/29 00:49:42;;;;;;;49.80;20.53;;;-3.00;99.90;;;;;;4129698;28;20279;-62
2022/12/29 00:51:43;;;;;;;41.53;20.60;;;-3.00;99.90;;;;;;4130442;28;20322;-65
2022/12/29 00:53:44;;;;;;;41.23;20.17;;;-2.90;99.90;;;;;;4128902;28;20252;-62
2022/12/29 00:55:45;;;;;;;42.13;19.70;;;-2.90;99.90;;;;;;4130297;28;20307;-61
2022/12/29 00:57:46;;;;;;;46.83;20.13;;;-2.90;99.90;;;;;;4129364;28;20264;-63
2022/12/29 00:59:47;;;;;;;47.97;20.73;;;-2.90;99.90;;;;;;4129844;28;20633;-63
2022/12/29 01:01:48;;;;;;;45.23;21.60;;;-2.90;99.90;;;;;;4130514;28;20260;-62
2022/12/29 01:03:49;;;;;;;45.17;23.20;;;-2.90;99.90;;;;;;4129151;28;20268;-62
2022/12/29 01:05:50;;;;;;;43.43;20.57;;;-2.90;99.90;;;;;;4130477;28;20296;-61
2022/12/29 01:07:52;;;;;;;48.13;22.60;;;-2.90;99.90;;;;;;4129425;28;20276;-61
2022/12/29 01:10:11;;;;;;;48.63;22.77;;;-3.00;99.90;;;;;;4112588;28;20281;-62
2022/12/29 01:12:12;;;;;;;47.87;22.73;;;-3.00;99.90;;;;;;4127089;28;20334;-62
2022/12/29 01:14:14;;;;;;;44.27;21.83;;;-3.00;99.90;;;;;;4130247;28;20681;-62
2022/12/29 01:16:15;;;;;;;54.70;27.80;;;-3.00;99.90;;;;;;4127408;28;20263;-61
2022/12/29 01:18:16;;;;;;;45.67;25.10;;;-3.00;99.90;;;;;;4112580;28;20289;-61
2022/12/29 01:20:17;;;;;;;65.47;33.40;;;-3.00;99.90;;;;;;4128932;28;20288;-62
2022/12/29 01:22:20;;;;;;;75.60;36.80;;;-3.10;99.90;;;;;;4130117;28;20656;-61
2022/12/29 01:24:21;;;;;;;59.57;28.63;;;-3.10;99.90;;;;;;4128294;28;20342;-61
2022/12/29 01:26:23;;;;;;;53.43;25.17;;;-3.10;99.90;;;;;;4128900;28;20794;-62
2022/12/29 01:28:24;;;;;;;56.83;26.83;;;-3.00;99.90;;;;;;4128792;28;20271;-62
2022/12/29 01:30:25;;;;;;;48.53;23.97;;;-3.00;99.90;;;;;;4129809;28;20276;-62
2022/12/29 01:32:26;;;;;;;47.37;23.80;;;-3.00;99.90;;;;;;4129622;28;20288;-62
2022/12/29 01:34:27;;;;;;;53.03;23.50;;;-3.00;99.90;;;;;;4128688;28;20672;-63
2022/12/29 01:36:28;;;;;;;44.90;21.97;;;-3.00;99.90;;;;;;4129845;28;20268;-62
2022/12/29 01:38:29;;;;;;;51.10;22.90;;;-3.10;99.90;;;;;;4129099;28;20248;-64
2022/12/29 01:40:31;;;;;;;47.97;23.63;;;-3.10;99.90;;;;;;4130157;28;20807;-62
2022/12/29 01:42:32;;;;;;;45.70;23.40;;;-3.10;99.90;;;;;;4127177;28;20280;-62
2022/12/29 01:44:55;;;;;;;51.50;23.23;;;-3.10;99.90;;;;;;4130324;28;20314;-63
2022/12/29 01:46:56;;;;;;;52.50;23.83;;;-3.00;99.90;;;;;;4128880;28;20692;-61
2022/12/29 01:48:57;;;;;;;50.33;22.00;;;-3.00;99.90;;;;;;4112167;28;20421;-62
2022/12/29 01:50:58;;;;;;;45.90;21.10;;;-3.00;99.90;;;;;;4128575;28;20264;-62
2022/12/29 01:53:11;;;;;;;44.10;21.43;;;-2.90;99.90;;;;;;4130006;28;20276;-62
2022/12/29 01:55:12;;;;;;;45.80;22.73;;;-2.90;99.90;;;;;;4128678;28;20272;-62
2022/12/29 01:57:20;;;;;;;56.03;24.30;;;-2.90;99.90;;;;;;4129969;28;20284;-61
2022/12/29 01:59:34;;;;;;;48.80;23.63;;;-2.90;99.90;;;;;;4128732;28;20323;-62
2022/12/29 02:01:35;;;;;;;40.80;21.27;;;-2.90;99.90;;;;;;4129374;28;20318;-62
2022/12/29 02:03:37;;;;;;;41.30;21.33;;;-3.00;99.90;;;;;;4110989;28;20277;-62
2022/12/29 02:06:08;;;;;;;45.80;22.30;;;-2.90;99.90;;;;;;4129455;28;20307;-62
2022/12/29 02:08:11;;;;;;;46.15;22.17;;;-2.90;99.90;;;;;;4126502;28;20280;-62
2022/12/29 02:10:13;;;;;;;47.13;23.17;;;-3.00;99.90;;;;;;4129690;28;20023;-62
2022/12/29 02:12:14;;;;;;;47.60;22.50;;;-3.00;99.90;;;;;;4127938;28;20264;-62
2022/12/29 02:14:15;;;;;;;48.63;24.03;;;-3.00;99.90;;;;;;4125805;28;20289;-62
2022/12/29 02:16:19;;;;;;;49.67;24.17;;;-3.00;99.90;;;;;;4112296;28;20332;-63
2022/12/29 02:18:29;;;;;;;53.43;25.50;;;-3.10;99.90;;;;;;4113518;28;20280;-62
2022/12/29 02:20:57;;;;;;;53.20;25.73;;;-3.10;99.90;;;;;;4112067;28;20289;-62
2022/12/29 02:23:01;;;;;;;46.63;22.97;;;-3.10;99.90;;;;;;4113419;28;20331;-62
2022/12/29 02:25:59;;;;;;;52.70;23.50;;;-3.10;99.90;;;;;;4112333;28;20280;-62
2022/12/29 02:28:12;;;;;;;49.70;23.80;;;-3.10;99.90;;;;;;4079725;29;20378;-64
2022/12/29 02:30:36;;;;;;;56.80;26.90;;;-3.10;99.90;;;;;;4077934;29;20759;-62
2022/12/29 02:32:43;;;;;;;62.70;28.90;;;-3.10;99.90;;;;;;4092129;28;20745;-63
2022/12/29 02:34:55;;;;;;;69.97;31.53;;;-3.00;99.90;;;;;;4112199;28;20265;-64
2022/12/29 02:37:19;;;;;;;69.10;31.27;;;-3.00;99.90;;;;;;4112869;28;20268;-62
2022/12/29 02:39:28;;;;;;;71.20;33.87;;;-3.10;99.90;;;;;;4112601;28;20273;-64
2022/12/29 02:41:43;;;;;;;70.20;31.13;;;-3.10;99.90;;;;;;4112747;28;20327;-63
2022/12/29 02:44:05;;;;;;;65.23;28.20;;;-3.10;99.90;;;;;;4112181;28;20812;-59
2022/12/29 02:46:27;;;;;;;56.17;25.90;;;-3.10;99.90;;;;;;4112231;28;20300;-65
2022/12/29 02:48:45;;;;;;;50.60;25.60;;;-3.00;99.90;;;;;;4112946;28;20306;-61
2022/12/29 02:51:14;;;;;;;59.30;28.63;;;-3.10;99.90;;;;;;4111854;28;20741;-63
2022/12/29 02:54:40;;;;;;;49.03;24.47;;;-3.10;99.90;;;;;;4119454;28;20660;-63
2022/12/29 02:55:41;;;;;;;49.53;25.23;;;-3.10;99.90;;;;;;4126084;28;20272;-63
2022/12/29 02:57:42;;;;;;;49.80;24.80;;;-3.10;99.90;;;;;;4113103;28;20327;-66
2022/12/29 02:59:44;;;;;;;50.93;23.73;;;-3.10;99.90;;;;;;4111985;28;20273;-62
2022/12/29 03:02:16;;;;;;;44.27;21.83;;;-3.10;99.90;;;;;;4112456;28;20285;-62
2022/12/29 03:04:17;;;;;;;51.23;23.23;;;-3.20;99.90;;;;;;4111780;28;20281;-63
2022/12/29 03:06:21;;;;;;;63.57;27.43;;;-3.20;99.90;;;;;;4112722;28;20343;-64
2022/12/29 03:08:39;;;;;;;59.27;26.83;;;-3.20;99.90;;;;;;4111112;28;20285;-62
2022/12/29 03:10:58;;;;;;;54.90;26.27;;;-3.20;99.90;;;;;;4112992;28;20591;-63
2022/12/29 03:16:22;;;;;;;51.08;24.08;;;-3.20;99.90;;;;;;4113165;28;20360;-63
2022/12/29 03:18:36;;;;;;;49.37;22.50;;;-3.20;99.90;;;;;;4103984;28;20420;-62
2022/12/29 03:22:26;;;;;;;49.67;21.67;;;-3.10;99.90;;;;;;4111857;28;20422;-62
2022/12/29 03:23:48;;;;;;;46.30;21.37;;;-3.10;99.90;;;;;;4111273;28;20273;-62
2022/12/29 03:25:53;;;;;;;46.80;22.10;;;-3.10;99.90;;;;;;4110529;28;20280;-63
2022/12/29 03:28:03;;;;;;;56.10;27.07;;;-3.10;99.90;;;;;;4124901;28;20280;-63
2022/12/29 03:30:05;;;;;;;55.10;25.37;;;-3.10;99.90;;;;;;4114833;28;20344;-61
2022/12/29 03:32:09;;;;;;;54.30;23.53;;;-3.10;99.90;;;;;;4112956;28;20327;-63
2022/12/29 03:34:11;;;;;;;49.10;23.60;;;-3.10;99.90;;;;;;4110619;28;20272;-62
2022/12/29 03:36:20;;;;;;;50.57;23.77;;;-3.00;99.90;;;;;;4112499;28;20888;-62
2022/12/29 03:38:47;;;;;;;46.60;22.70;;;-3.00;99.90;;;;;;4111746;28;20253;-63
2022/12/29 03:40:56;;;;;;;39.97;21.20;;;-3.00;99.90;;;;;;4112344;28;20296;-62
2022/12/29 03:42:57;;;;;;;49.13;21.73;;;-3.00;99.90;;;;;;4111962;28;20268;-62
2022/12/29 03:44:58;;;;;;;43.03;21.20;;;-3.00;99.90;;;;;;4112837;28;20332;-63
2022/12/29 03:46:59;;;;;;;47.20;20.80;;;-3.10;99.90;;;;;;4110839;28;20289;-62
2022/12/29 03:49:01;;;;;;;40.93;20.33;;;-3.10;99.90;;;;;;4124905;28;20684;-67
2022/12/29 03:51:02;;;;;;;38.70;19.83;;;-3.10;99.90;;;;;;4130018;28;20315;-64
2022/12/29 03:53:03;;;;;;;36.57;19.07;;;-3.00;99.90;;;;;;4131123;28;20672;-64
2022/12/29 03:55:05;;;;;;;37.60;18.43;;;-3.00;99.90;;;;;;4130538;28;20268;-64
2022/12/29 03:57:06;;;;;;;98.50;44.53;;;-3.10;99.90;;;;;;4130848;28;20276;-65
2022/12/29 03:59:07;;;;;;;73.37;33.87;;;-3.10;99.90;;;;;;4131438;28;20330;-64
2022/12/29 04:01:08;;;;;;;56.00;24.87;;;-3.10;99.90;;;;;;4130154;28;20276;-63
2022/12/29 04:03:09;;;;;;;45.73;22.20;;;-3.20;99.90;;;;;;4131628;28;20322;-63
2022/12/29 04:05:10;;;;;;;63.43;29.47;;;-3.10;99.90;;;;;;4112523;28;20630;-61
2022/12/29 04:07:12;;;;;;;50.53;27.13;;;-3.20;99.90;;;;;;4113392;28;20288;-63
2022/12/29 04:09:13;;;;;;;50.70;22.07;;;-3.30;99.90;;;;;;4113950;28;20681;-62
2022/12/29 04:11:14;;;;;;;44.40;22.60;;;-3.30;99.90;;;;;;4115047;28;20331;-62
2022/12/29 04:13:16;;;;;;;40.37;20.90;;;-3.30;99.90;;;;;;4123998;28;20346;-63
2022/12/29 04:15:17;;;;;;;38.33;20.97;;;-3.30;99.90;;;;;;4131218;28;21096;-64
2022/12/29 04:17:18;;;;;;;39.63;20.10;;;-3.30;99.90;;;;;;4130236;28;20276;-65
2022/12/29 04:19:20;;;;;;;41.10;22.30;;;-3.30;99.90;;;;;;4113468;28;20293;-65
2022/12/29 04:21:21;;;;;;;38.77;18.83;;;-3.30;99.90;;;;;;4130287;28;20342;-66
2022/12/29 04:23:22;;;;;;;39.80;18.83;;;-3.30;99.90;;;;;;4130715;28;20671;-67
2022/12/29 04:25:23;;;;;;;43.73;19.43;;;-3.30;99.90;;;;;;4112907;28;20281;-67
2022/12/29 04:27:24;;;;;;;37.40;19.47;;;-3.30;99.90;;;;;;4130164;28;20705;-65
2022/12/29 04:29:25;;;;;;;40.57;20.23;;;-3.30;99.90;;;;;;4130434;28;20303;-63
2022/12/29 04:31:26;;;;;;;49.33;19.70;;;-3.30;99.90;;;;;;4129600;28;20691;-63
2022/12/29 04:33:27;;;;;;;52.23;20.03;;;-3.40;99.90;;;;;;4131123;28;21206;-61
2022/12/29 04:35:29;;;;;;;66.13;28.33;;;-3.50;99.90;;;;;;4130024;28;20276;-61
2022/12/29 04:37:30;;;;;;;67.43;29.27;;;-3.60;99.90;;;;;;4130777;28;20265;-65
2022/12/29 04:39:32;;;;;;;58.73;26.50;;;-3.70;99.90;;;;;;4128549;28;20277;-62
2022/12/29 04:41:33;;;;;;;62.50;28.87;;;-3.70;99.90;;;;;;4097409;29;20328;-62
2022/12/29 04:43:35;;;;;;;59.73;27.63;;;-3.70;99.90;;;;;;4114033;28;20296;-63
2022/12/29 04:45:36;;;;;;;58.00;26.50;;;-3.80;99.90;;;;;;4114076;28;20761;-65
2022/12/29 04:47:37;;;;;;;58.30;28.50;;;-3.80;99.90;;;;;;4113508;28;20345;-63
2022/12/29 04:49:38;;;;;;;49.37;24.23;;;-3.70;99.90;;;;;;4114559;28;20261;-65
2022/12/29 04:51:39;;;;;;;51.33;22.10;;;-3.70;99.90;;;;;;4113639;28;20273;-61
2022/12/29 04:53:41;;;;;;;48.63;22.60;;;-3.80;99.90;;;;;;4114129;28;20272;-63
2022/12/29 04:55:42;;;;;;;45.23;21.53;;;-3.80;99.90;;;;;;4096243;29;20277;-61
2022/12/29 04:57:43;;;;;;;43.92;20.48;;;-3.90;99.90;;;;;;4113365;28;20750;-62
2022/12/29 04:59:44;;;;;;;42.30;18.53;;;-3.90;99.90;;;;;;4114010;28;20059;-62
2022/12/29 05:01:46;;;;;;;42.17;18.43;;;-3.90;99.90;;;;;;4112735;28;20327;-62
2022/12/29 05:03:50;;;;;;;38.70;19.80;;;-4.00;99.90;;;;;;4114099;28;20784;-61
2022/12/29 05:05:56;;;;;;;47.83;21.07;;;-4.00;99.90;;;;;;4095547;28;20340;-62
2022/12/29 05:07:57;;;;;;;50.63;23.65;;;-4.00;99.90;;;;;;4113531;28;20375;-61
2022/12/29 05:09:58;;;;;;;46.23;23.43;;;-4.10;99.90;;;;;;4113197;28;20023;-59
2022/12/29 05:11:59;;;;;;;46.95;23.75;;;-4.10;99.90;;;;;;4115341;28;20328;-61
2022/12/29 05:14:00;;;;;;;58.63;27.70;;;-4.10;99.90;;;;;;4113515;28;20038;-61
2022/12/29 05:16:02;;;;;;;56.27;28.27;;;-4.10;99.90;;;;;;4114563;28;20284;-61
2022/12/29 05:18:03;;;;;;;68.53;29.60;;;-4.10;99.90;;;;;;4113152;28;20712;-61
2022/12/29 05:20:05;;;;;;;64.18;29.67;;;-4.20;99.90;;;;;;4113342;28;20284;-61
2022/12/29 05:22:06;;;;;;;55.60;28.50;;;-4.20;99.90;;;;;;4112950;28;20097;-61
2022/12/29 05:24:08;;;;;;;54.00;27.70;;;-4.20;99.90;;;;;;4113881;28;20042;-61
2022/12/29 05:26:09;;;;;;;53.45;27.52;;;-4.20;99.90;;;;;;4112736;28;20035;-60
2022/12/29 05:28:10;;;;;;;57.28;27.48;;;-4.30;99.90;;;;;;4113476;28;20066;-61
2022/12/29 05:30:11;;;;;;;65.97;33.85;;;-4.30;99.90;;;;;;4113606;28;20027;-63
2022/12/29 05:32:13;;;;;;;67.90;33.13;;;-4.30;99.90;;;;;;4112683;28;20093;-63
2022/12/29 05:34:15;;;;;;;56.45;28.95;;;-4.40;99.90;;;;;;4113904;28;20031;-64
2022/12/29 05:36:16;;;;;;;63.33;29.60;;;-4.30;99.90;;;;;;4112898;28;20081;-62
2022/12/29 05:38:17;;;;;;;52.42;25.83;;;-4.30;99.90;;;;;;4114946;28;20034;-62
2022/12/29 05:40:18;;;;;;;52.15;25.40;;;-4.20;99.90;;;;;;4128809;28;20077;-62
2022/12/29 05:42:19;;;;;;;62.70;26.10;;;-4.20;99.90;;;;;;4129266;28;20039;-62
2022/12/29 05:44:20;;;;;;;50.08;23.88;;;-4.10;99.90;;;;;;4128132;28;20034;-62
2022/12/29 05:46:22;;;;;;;53.40;25.73;;;-4.10;99.90;;;;;;4129840;28;20042;-63
2022/12/29 05:48:23;;;;;;;47.33;22.52;;;-4.10;99.90;;;;;;4128700;28;20475;-64
2022/12/29 05:50:24;;;;;;;51.03;24.40;;;-4.10;99.90;;;;;;4128429;28;20030;-62
2022/12/29 05:52:25;;;;;;;46.93;23.43;;;-4.10;99.90;;;;;;4128780;28;20471;-62
2022/12/29 05:54:26;;;;;;;46.63;22.33;;;-4.10;99.90;;;;;;4129317;28;20288;-63
2022/12/29 05:56:27;;;;;;;49.97;23.25;;;-4.00;99.90;;;;;;4129066;28;20264;-63
2022/12/29 05:58:28;;;;;;;49.28;22.25;;;-4.00;99.90;;;;;;4128984;28;20053;-62
2022/12/29 06:00:29;;;;;;;51.30;23.58;;;-3.90;99.90;;;;;;4129003;28;20100;-62
2022/12/29 06:02:31;;;;;;;48.60;23.53;;;-3.90;99.90;;;;;;4110875;28;20038;-63
2022/12/29 06:04:32;;;;;;;46.03;23.40;;;-3.90;99.90;;;;;;4128606;28;20382;-62
2022/12/29 06:06:33;;;;;;;55.72;25.08;;;-3.80;99.90;;;;;;4127376;28;20760;-62
2022/12/29 06:08:34;;;;;;;46.80;25.63;;;-3.80;99.90;;;;;;4129183;28;20049;-63
2022/12/29 06:10:35;;;;;;;59.33;27.15;;;-3.80;99.90;;;;;;4127788;28;20827;-66
2022/12/29 06:12:36;;;;;;;59.87;28.93;;;-3.80;99.90;;;;;;4128773;28;20038;-66
2022/12/29 06:14:37;;;;;;;69.67;30.43;;;-3.80;99.90;;;;;;4128666;28;20272;-65
2022/12/29 06:16:38;;;;;;;62.70;31.73;;;-3.70;99.90;;;;;;4129191;28;20652;-66
2022/12/29 06:18:40;;;;;;;65.88;31.05;;;-3.70;99.90;;;;;;4127397;28;20271;-63
2022/12/29 06:20:41;;;;;;;65.32;31.40;;;-3.70;99.90;;;;;;4129195;28;20125;-66
2022/12/29 06:22:42;;;;;;;66.90;30.00;;;-3.70;99.90;;;;;;4126565;28;20026;-65
2022/12/29 06:24:43;;;;;;;70.30;31.67;;;-3.60;99.90;;;;;;4128722;28;20280;-66
2022/12/29 06:26:44;;;;;;;67.53;31.87;;;-3.50;99.90;;;;;;4127547;28;20280;-63
2022/12/29 06:28:45;;;;;;;70.70;32.17;;;-3.50;99.90;;;;;;4110504;28;20288;-63
2022/12/29 06:30:47;;;;;;;69.30;31.10;;;-3.40;99.90;;;;;;4128508;28;20780;-62
2022/12/29 06:32:48;;;;;;;74.07;32.87;;;-3.30;99.90;;;;;;4127295;28;20276;-65
2022/12/29 06:34:50;;;;;;;66.43;30.23;;;-3.20;99.90;;;;;;4127827;28;20323;-64
2022/12/29 06:36:51;;;;;;;61.87;30.63;;;-3.10;99.90;;;;;;4127599;28;20272;-62
2022/12/29 06:38:53;;;;;;;61.17;29.70;;;-2.90;99.90;;;;;;4128709;28;20347;-62
2022/12/29 06:40:54;;;;;;;74.03;32.17;;;-2.80;99.90;;;;;;4127647;28;20354;-65
2022/12/29 06:42:55;;;;;;;71.80;30.97;;;-2.70;99.90;;;;;;4111177;28;20331;-62
2022/12/29 06:44:58;;;;;;;68.87;28.97;;;-2.50;99.90;;;;;;4127365;28;20358;-66
2022/12/29 06:46:59;;;;;;;56.80;27.40;;;-2.40;99.90;;;;;;4128684;28;20327;-65
2022/12/29 06:49:00;;;;;;;58.50;27.47;;;-2.20;99.90;;;;;;4127156;28;20276;-64
2022/12/29 06:51:02;;;;;;;51.97;27.93;;;-2.10;99.90;;;;;;4128785;28;20653;-63
2022/12/29 06:53:03;;;;;;;115.77;49.30;;;-1.90;99.90;;;;;;4127908;28;20338;-67
2022/12/29 06:55:04;;;;;;;88.93;41.47;;;-1.80;99.90;;;;;;4125745;28;20281;-65
2022/12/29 06:57:06;;;;;;;93.40;43.23;;;-1.70;99.90;;;;;;4112056;28;20307;-62
2022/12/29 06:59:08;;;;;;;70.20;35.43;;;-1.40;99.90;;;;;;4112119;28;20594;-63
2022/12/29 07:01:09;;;;;;;61.87;30.50;;;-1.30;99.90;;;;;;4112806;28;20273;-62
2022/12/29 07:03:10;;;;;;;60.33;30.40;;;-1.40;99.90;;;;;;4112034;28;20740;-63
2022/12/29 07:05:13;;;;;;;69.37;32.97;;;-1.40;99.90;;;;;;4125401;28;20272;-63
2022/12/29 07:07:14;;;;;;;65.80;31.20;;;-1.50;99.90;;;;;;4127778;28;20355;-63
2022/12/29 07:09:15;;;;;;;64.77;32.30;;;-1.50;99.90;;;;;;4129038;28;20276;-65
2022/12/29 07:11:16;;;;;;;74.17;34.53;;;-1.50;99.90;;;;;;4127612;28;20318;-62
2022/12/29 07:13:17;;;;;;;69.03;34.47;;;-1.50;99.90;;;;;;4127910;28;20331;-63
2022/12/29 07:15:19;;;;;;;71.33;33.03;;;-1.20;99.90;;;;;;4127640;28;20330;-61
2022/12/29 07:17:20;;;;;;;67.90;32.97;;;-1.20;99.90;;;;;;4128878;28;20347;-62
2022/12/29 07:19:21;;;;;;;57.03;30.53;;;-1.40;99.90;;;;;;4127491;28;20358;-63
2022/12/29 07:21:22;;;;;;;59.63;31.43;;;-1.30;99.90;;;;;;4128667;28;20272;-64
2022/12/29 07:23:23;;;;;;;56.73;28.97;;;-1.00;99.90;;;;;;4127594;28;20268;-62
2022/12/29 07:25:25;;;;;;;57.83;29.27;;;-0.80;99.90;;;;;;4112177;28;20269;-62
2022/12/29 07:27:26;;;;;;;59.17;29.40;;;-0.70;99.90;;;;;;4112923;28;20403;-62
2022/12/29 07:29:27;;;;;;;59.07;29.23;;;-0.70;99.90;;;;;;4131463;28;20728;-66
2022/12/29 07:31:28;;;;;;;55.50;27.60;;;-0.60;99.90;;;;;;4130942;28;20318;-62
2022/12/29 07:33:29;;;;;;;48.63;25.50;;;-0.30;99.90;;;;;;4113357;28;20391;-62
2022/12/29 07:35:30;;;;;;;48.07;25.17;;;0.00;99.90;;;;;;4131396;28;20736;-62
2022/12/29 07:37:31;;;;;;;44.57;23.03;;;0.10;99.90;;;;;;4129828;28;20279;-62
2022/12/29 07:39:33;;;;;;;45.17;23.63;;;0.30;99.90;;;;;;4129866;28;20310;-64
2022/12/29 07:41:34;;;;;;;41.37;23.67;;;0.50;99.90;;;;;;4112576;28;20268;-64
2022/12/29 07:43:36;;;;;;;52.20;25.07;;;0.80;99.90;;;;;;4129469;28;20267;-63
2022/12/29 07:45:37;;;;;;;46.57;23.73;;;1.00;99.90;;;;;;4130353;28;20299;-62
2022/12/29 07:47:38;;;;;;;56.13;26.43;;;0.70;99.90;;;;;;4131577;28;21090;-62
2022/12/29 07:49:39;;;;;;;49.40;25.03;;;0.90;99.90;;;;;;4130470;28;20268;-64
2022/12/29 07:51:40;;;;;;;50.80;23.00;;;1.20;99.90;;;;;;4130568;28;20272;-62
2022/12/29 07:53:41;;;;;;;57.60;27.30;;;1.20;99.90;;;;;;4130078;28;20307;-62
2022/12/29 07:55:42;;;;;;;57.37;27.50;;;1.20;99.90;;;;;;4130352;28;20400;-65
2022/12/29 07:57:43;;;;;;;53.33;27.47;;;0.70;99.90;;;;;;4130537;28;20272;-62
2022/12/29 07:59:44;;;;;;;66.10;27.23;;;0.20;99.90;;;;;;4130938;28;20272;-61
2022/12/29 08:01:45;;;;;;;53.73;28.30;;;0.00;99.90;;;;;;4130043;28;20271;-63
2022/12/29 08:03:47;;;;;;;55.93;27.53;;;-0.20;99.90;;;;;;4129986;28;20272;-63
2022/12/29 08:05:49;;;;;;;49.17;25.90;;;-0.30;99.90;;;;;;4130022;28;20323;-64
2022/12/29 08:07:50;;;;;;;49.10;25.00;;;-0.30;99.90;;;;;;4130071;28;20347;-62
2022/12/29 08:09:51;;;;;;;49.47;25.77;;;-0.50;99.90;;;;;;4131034;28;20311;-65
2022/12/29 08:11:53;;;;;;;53.67;26.77;;;-0.50;99.90;;;;;;4125595;28;20308;-66
2022/12/29 08:13:54;;;;;;;55.37;27.53;;;-0.40;99.90;;;;;;4114538;28;20273;-64
2022/12/29 08:15:58;;;;;;;58.63;29.33;;;-0.40;99.90;;;;;;4114075;28;20273;-62
2022/12/29 08:17:59;;;;;;;61.60;29.57;;;-0.30;99.90;;;;;;4118238;28;20268;-63
2022/12/29 08:20:01;;;;;;;51.47;26.67;;;-0.40;99.90;;;;;;4129270;28;20276;-61
2022/12/29 08:22:02;;;;;;;45.23;26.00;;;-0.30;99.90;;;;;;4130892;28;20744;-62
2022/12/29 08:24:03;;;;;;;53.30;27.53;;;-0.20;99.90;;;;;;4129415;28;20672;-62
2022/12/29 08:26:05;;;;;;;65.10;29.97;;;-0.10;99.90;;;;;;4130464;28;20330;-61
2022/12/29 08:28:07;;;;;;;53.43;29.93;;;-0.10;99.90;;;;;;4128996;28;20307;-62
2022/12/29 08:30:08;;;;;;;66.93;32.43;;;0.00;99.90;;;;;;4129941;28;20276;-64
2022/12/29 08:32:10;;;;;;;78.00;37.50;;;0.00;99.90;;;;;;4120654;28;20269;-62
2022/12/29 08:34:11;;;;;;;72.50;34.67;;;-0.10;99.90;;;;;;4114228;28;20303;-61
2022/12/29 08:36:12;;;;;;;65.07;34.33;;;-0.10;99.90;;;;;;4096323;28;20292;-60
2022/12/29 08:38:13;;;;;;;60.83;32.73;;;-0.20;99.90;;;;;;4113093;28;20289;-62
2022/12/29 08:40:15;;;;;;;60.53;30.30;;;-0.20;99.90;;;;;;4114555;28;20264;-61
2022/12/29 08:42:16;;;;;;;54.20;29.07;;;-0.30;99.90;;;;;;4112870;28;20308;-63
2022/12/29 08:44:17;;;;;;;39.37;20.63;;;-0.30;99.90;;;;;;4114610;28;20269;-63
2022/12/29 08:46:19;;;;;;;48.57;21.60;;;-0.40;99.90;;;;;;4113461;28;20363;-63
2022/12/29 08:48:21;;;;;;;39.30;22.33;;;-0.50;99.90;;;;;;4113769;28;20296;-63
2022/12/29 08:50:23;;;;;;;42.57;22.97;;;-0.40;99.90;;;;;;4118949;28;20269;-62
2022/12/29 08:52:24;;;;;;;59.00;26.17;;;-0.20;99.90;;;;;;4129344;28;20831;-61
2022/12/29 08:54:25;;;;;;;46.77;25.53;;;0.20;99.90;;;;;;4119719;28;20272;-64
2022/12/29 08:56:27;;;;;;;46.57;24.43;;;0.70;99.90;;;;;;4129367;28;20338;-62
2022/12/29 08:58:28;;;;;;;44.73;23.30;;;0.90;99.90;;;;;;4127153;28;20264;-61
2022/12/29 09:00:29;;;;;;;47.57;23.77;;;1.00;99.90;;;;;;4129427;28;20894;-62
2022/12/29 09:02:31;;;;;;;38.73;20.83;;;1.10;99.90;;;;;;4128459;28;20681;-61
2022/12/29 09:04:32;;;;;;;36.37;19.67;;;1.20;99.90;;;;;;4129266;28;20311;-63
2022/12/29 09:06:33;;;;;;;36.70;20.17;;;1.20;99.90;;;;;;4129472;28;20795;-62
2022/12/29 09:08:34;;;;;;;38.17;18.93;;;1.20;99.90;;;;;;4128927;28;20288;-63
2022/12/29 09:10:35;;;;;;;31.87;18.97;;;1.30;99.90;;;;;;4129577;28;20656;-63
2022/12/29 09:12:37;;;;;;;35.47;19.20;;;1.10;99.90;;;;;;4117928;28;20324;-62
2022/12/29 09:14:38;;;;;;;36.80;22.33;;;0.90;99.90;;;;;;4113498;28;20328;-62
2022/12/29 09:18:59;;;;;;;38.77;20.87;;;0.80;99.90;;;;;;4113908;28;20841;-67
2022/12/29 09:21:03;;;;;;;41.80;19.50;;;0.70;99.90;;;;;;4112332;28;20334;-61
2022/12/29 09:23:06;;;;;;;37.87;19.33;;;0.70;99.90;;;;;;4112901;28;20264;-63
2022/12/29 09:25:08;;;;;;;35.50;19.20;;;0.70;99.90;;;;;;4111773;28;20276;-61
2022/12/29 09:27:10;;;;;;;42.07;21.40;;;0.40;99.90;;;;;;4113296;28;20265;-62
2022/12/29 09:29:11;;;;;;;37.83;21.43;;;0.20;99.90;;;;;;4111905;28;20339;-62
2022/12/29 09:31:12;;;;;;;39.27;21.27;;;0.10;99.90;;;;;;4113336;28;20323;-62
2022/12/29 09:33:13;;;;;;;39.63;22.77;;;0.10;99.90;;;;;;4111339;28;20343;-62
2022/12/29 09:35:16;;;;;;;38.33;21.27;;;0.20;99.90;;;;;;4112494;28;20281;-61
2022/12/29 09:37:17;;;;;;;41.57;23.10;;;0.20;99.90;;;;;;4112653;28;20388;-62
2022/12/29 09:39:18;;;;;;;45.93;23.10;;;0.30;99.90;;;;;;4113367;28;20304;-63
2022/12/29 09:41:45;;;;;;;50.80;24.70;;;0.40;99.90;;;;;;4112573;28;20328;-63
2022/12/29 09:44:01;;;;;;;39.63;22.20;;;0.70;99.90;;;;;;4113013;28;20281;-62
2022/12/29 09:46:34;;;;;;;38.23;21.10;;;0.60;99.90;;;;;;4112259;28;20638;-65
2022/12/29 09:48:41;;;;;;;39.70;22.20;;;0.50;99.90;;;;;;4112623;28;20697;-62
2022/12/29 09:50:47;;;;;;;41.17;22.43;;;0.50;99.90;;;;;;4121614;28;20346;-64
2022/12/29 09:52:59;;;;;;;45.53;20.90;;;0.50;99.90;;;;;;4114327;28;20296;-63
2022/12/29 09:55:14;;;;;;;37.57;21.67;;;0.50;99.90;;;;;;4125536;28;20296;-63
2022/12/29 09:57:25;;;;;;;40.23;19.90;;;0.50;99.90;;;;;;4129623;28;20275;-62
2022/12/29 09:59:31;;;;;;;;;;;0.50;99.90;;;;;;4128588;28;20280;-61
2022/12/29 10:01:47;;;;;;;37.13;19.20;;;0.60;99.90;;;;;;4129594;28;19980;-63
2022/12/29 10:03:50;;;;;;;38.93;20.13;;;0.60;99.90;;;;;;4127484;28;20268;-62
2022/12/29 10:05:54;;;;;;;37.63;20.67;;;0.70;99.90;;;;;;4129232;28;20330;-64
2022/12/29 10:08:21;;;;;;;32.93;19.63;;;0.70;99.90;;;;;;4128271;28;20296;-63
2022/12/29 10:10:37;;;;;;;38.33;19.57;;;0.90;99.90;;;;;;4124687;28;20610;-67
2022/12/29 10:12:56;;;;;;;37.63;19.20;;;0.90;99.90;;;;;;4123213;28;20272;-62
2022/12/29 10:15:13;;;;;;;29.97;16.13;;;1.10;99.90;;;;;;4126357;28;20292;-63
2022/12/29 10:18:01;;;;;;;31.00;15.83;;;1.20;99.90;;;;;;4125919;28;20272;-62
2022/12/29 10:20:18;;;;;;;30.30;16.27;;;1.20;99.90;;;;;;4067285;28;20415;-62
2022/12/29 10:22:46;;;;;;;26.70;14.97;;;1.10;99.90;;;;;;4126401;28;20606;-63
2022/12/29 10:24:51;;;;;;;23.53;14.03;;;1.20;99.90;;;;;;4113162;28;20368;-60
2022/12/29 10:26:52;;;;;;;25.73;13.70;;;1.30;99.90;;;;;;4123485;28;20791;-62
2022/12/29 10:28:56;;;;;;;26.33;14.47;;;1.40;99.90;;;;;;4126689;28;20381;-62
2022/12/29 10:31:00;;;;;;;22.73;14.20;;;1.40;99.90;;;;;;4118287;28;20285;-68
2022/12/29 10:33:10;;;;;;;29.60;14.03;;;1.40;99.90;;;;;;4111406;28;20328;-62
2022/12/29 10:35:22;;;;;;;21.48;12.07;;;1.50;99.90;;;;;;4123280;28;20288;-66
2022/12/29 10:37:44;;;;;;;22.63;13.60;;;1.60;99.90;;;;;;4127188;28;20082;-64
2022/12/29 10:39:52;;;;;;;21.20;11.97;;;1.70;99.90;;;;;;4127270;28;20338;-63
2022/12/29 10:42:09;;;;;;;26.70;12.47;;;1.70;99.90;;;;;;4127059;28;20299;-65
2022/12/29 10:44:15;;;;;;;21.37;12.60;;;1.70;99.90;;;;;;4125173;28;20292;-64
2022/12/29 10:46:24;;;;;;;19.77;11.33;;;1.70;99.90;;;;;;4126747;28;20264;-63
2022/12/29 10:48:30;;;;;;;20.67;10.93;;;1.70;99.90;;;;;;4108967;28;20301;-64
2022/12/29 10:50:31;;;;;;;21.00;12.27;;;1.80;99.90;;;;;;4126736;28;20826;-60
2022/12/29 10:52:34;;;;;;;19.77;11.43;;;1.80;99.90;;;;;;4124495;28;20272;-68
2022/12/29 10:55:01;;;;;;;22.63;11.17;;;1.90;99.90;;;;;;4110879;28;20799;-61
2022/12/29 10:57:16;;;;;;;23.57;12.13;;;1.90;99.90;;;;;;4110036;28;20273;-63
2022/12/29 10:59:25;;;;;;;20.40;11.50;;;2.10;99.90;;;;;;4110403;28;21059;-63
2022/12/29 11:01:34;;;;;;;23.23;11.73;;;2.10;99.90;;;;;;4110708;28;20729;-64
2022/12/29 11:04:05;;;;;;;19.60;11.03;;;2.10;99.90;;;;;;4110993;28;20297;-65
2022/12/29 11:06:25;;;;;;;;;;;2.20;99.90;;;;;;4111796;28;20331;-64
2022/12/29 11:08:33;;;;;;;15.53;9.50;;;2.20;99.90;;;;;;4110048;28;20688;-62